Duncombe, Iowa
Current Conditions -  °F | °C
As of 7:35 PM on Wednesday 22 Oct 2014 (Local Time) from KEBS Reporting Station
Scattered Clouds Scattered Clouds  
Wind Chill: 57°   Ceiling: Unl
Heat Index: 57°   Visibility: 10mi
Dew Point: 46°   Wind: 14mph
Humidity: 67%   Direction: 150°SSE
Pressure: 30.08"   Gusts: NA
Location:  42.47°N, 93.99°W
Report Text: KEBS 230035Z AUTO 15012KT 10SM SCT065 14/08 A3008 RMK AO2
Loading
Personal Weather Stations






























Interactive Weather Map
Tropical Storm Tracking
New forecast layout! Learn more

10-Day Weather Forecast

Advertisements
Track Severe Weather on mobile